Latest Weather Observations for Badgerys Creek

IDN60801

Issued at 5:02 pm EDT Thursday 11 February 2016 (issued every 30 minutes, with the page automatically refreshed every 10 minutes)

About weather observations | Map of weather stations | Latest weather observations for NSW | Other Formats
Station Details ID: 067108 Name: BADGERYS CREEK AWS Lat: -33.90 Lon: 150.73 Height: 81.2 m
Data from the previous 72 hours. | See also: Recent months at Badgerys Creek
Date/Time
EDT
Temp
°C
App
Temp
°C
Dew
Point
Rel
Hum
%
Delta-T
°C
Wind Press
QNH
hPa
Press
MSL
hPa
Rain
since 9 am
mm
Dir
 
Spd
km/h
Gust
km/h
Spd
kts
Gust
kts
11/05:00pm 25.8 25.5 18.2 63 4.8 E 17 24 9 13 1013.5 1013.2 0.0
11/04:30pm 27.1 27.3 17.6 56 6.0 ENE 13 20 7 11 1013.2 1012.9 0.0
11/04:00pm 28.0 26.6 16.6 50 7.1 ENE 19 28 10 15 1012.9 1012.6 0.0
11/03:30pm 29.8 30.1 17.9 48 7.6 ENE 13 20 7 11 1013.2 1012.9 0.0
11/03:00pm 29.5 30.1 18.6 52 7.0 ENE 13 19 7 10 1013.4 1013.1 0.0
11/02:30pm 29.2 30.3 18.0 51 7.2 NE 9 15 5 8 1013.8 1013.5 0.0
11/02:00pm 28.5 29.4 18.3 54 6.5 E 11 19 6 10 1014.2 1013.9 0.0
11/01:30pm 28.1 29.2 17.9 54 6.5 E 9 20 5 11 1014.5 1014.2 0.0
11/01:00pm 27.9 29.5 18.3 56 6.1 N 7 17 4 9 1014.7 1014.4 0.0
11/12:30pm 27.7 29.2 19.0 59 5.6 ENE 9 17 5 9 1015.0 1014.7 0.0
11/12:00pm 27.7 29.9 19.5 61 5.3 ESE 7 15 4 8 1015.4 1015.1 0.0
11/11:30am 27.0 28.4 18.6 60 5.4 E 9 17 5 9 1015.6 1015.3 0.0
11/11:00am 25.4 27.8 18.8 67 4.2 S 4 9 2 5 1015.7 1015.4 0.0
11/10:30am 25.5 28.2 19.4 69 3.9 NNW 4 9 2 5 1015.7 1015.4 0.0
11/10:00am 24.3 26.7 18.9 72 3.4 ESE 4 7 2 4 1015.8 1015.5 0.0
11/09:30am 23.3 25.3 18.8 76 2.9 SE 6 9 3 5 1015.9 1015.6 0.0
11/09:00am 22.2 25.0 18.8 81 2.1 E 2 6 1 3 1015.9 1015.6 0.0
11/08:30am 20.7 23.4 19.5 93 0.8 E 4 4 2 2 1015.8 1015.5 0.0
11/08:00am 19.0 21.5 19.0 100 0.0 E 4 6 2 3 1015.6 1015.3 0.0
11/07:30am 17.9 19.5 17.9 100 0.0 E 6 7 3 4 1015.2 1014.9 0.0
11/07:00am 17.1 18.4 17.1 100 0.0 E 6 6 3 3 1014.6 1014.3 0.0
11/06:30am 16.6 17.7 16.6 100 0.0 E 6 7 3 4 1014.3 1014.0 0.0
11/06:00am 17.1 18.8 17.1 100 0.0 E 4 6 2 3 1014.0 1013.7 0.0
11/05:30am 17.1 18.4 17.1 100 0.0 E 6 6 3 3 1013.7 1013.4 0.0
11/05:00am 17.5 19.0 17.5 100 0.0 E 6 7 3 4 1013.4 1013.1 0.0
11/04:30am 17.6 19.1 17.6 100 0.0 E 6 6 3 3 1013.3 1013.0 0.0
11/04:00am 17.7 19.2 17.7 100 0.0 E 6 6 3 3 1013.3 1013.0 0.0
11/03:30am 17.9 19.5 17.9 100 0.0 E 6 7 3 4 1013.3 1013.0 0.0
11/03:00am 17.7 19.6 17.7 100 0.0 E 4 6 2 3 1013.4 1013.1 0.0
11/02:30am 17.9 20.3 17.9 100 0.0 E 2 4 1 2 1013.7 1013.4 0.0
11/02:00am 17.9 19.8 17.6 98 0.2 E 4 4 2 2 1013.9 1013.6 0.0
11/01:30am 18.4 20.4 17.9 97 0.3 ENE 4 4 2 2 1013.8 1013.5 0.0
11/01:00am 19.0 20.5 17.5 91 0.9 NE 6 7 3 4 1013.9 1013.6 0.0
11/12:30am 19.2 21.0 17.5 90 1.0 NE 4 4 2 2 1014.2 1013.9 0.0
11/12:00am 19.7 22.8 18.7 94 0.6 CALM 0 0 0 0 1014.3 1014.0 0.0
 
Date/Time
EDT
Temp
°C
App
Temp
°C
Dew
Point
Rel
Hum
%
Delta-T
°C
Wind Press
QNH
hPa
Press
MSL
hPa
Rain
since 9 am
mm
Dir
 
Spd
km/h
Gust
km/h
Spd
kts
Gust
kts
10/11:30pm 20.5 22.7 18.4 88 1.3 NE 4 6 2 3 1014.1 1013.8 0.0
10/11:00pm 20.3 23.5 18.8 91 0.9 CALM 0 0 0 0 1014.3 1014.0 0.0
10/10:30pm 21.1 24.2 18.7 86 1.5 CALM 0 0 0 0 1014.3 1014.0 0.0
10/10:00pm 21.4 23.4 18.8 85 1.6 ENE 6 6 3 3 1014.1 1013.8 0.0
10/09:30pm 21.9 23.8 18.9 83 1.9 ENE 7 7 4 4 1013.8 1013.5 0.0
10/09:00pm 22.1 24.0 18.9 82 2.0 E 7 9 4 5 1013.5 1013.2 0.0
10/08:30pm 23.4 25.4 18.7 75 3.0 E 6 9 3 5 1013.2 1012.9 0.0
10/08:00pm 24.4 25.9 18.8 71 3.6 E 9 15 5 8 1012.7 1012.4 0.0
10/07:30pm 26.1 27.0 18.5 63 4.8 ENE 11 17 6 9 1012.2 1011.9 0.0
10/07:00pm 27.5 27.4 18.8 59 5.6 ENE 17 22 9 12 1011.7 1011.3 0.0
10/06:30pm 28.9 29.3 18.9 54 6.5 ENE 15 20 8 11 1011.3 1010.9 0.0
10/06:00pm 29.5 30.5 19.5 55 6.5 ESE 13 20 7 11 1011.2 1010.8 0.0
10/05:30pm 30.4 31.1 17.1 44 8.4 NE 9 15 5 8 1011.2 1010.8 0.0
10/05:00pm 30.4 30.6 16.8 44 8.6 NNE 11 19 6 10 1011.2 1010.8 0.0
10/04:30pm 30.4 31.3 17.5 46 8.2 NE 9 15 5 8 1011.3 1010.9 0.0
10/04:00pm 30.0 30.2 16.8 45 8.3 NE 11 19 6 10 1011.5 1011.1 0.0
10/03:30pm 30.0 31.1 18.1 49 7.6 NNE 9 17 5 9 1012.0 1011.6 0.0
10/03:00pm 29.4 30.7 17.2 47 7.7 N 6 9 3 5 1012.5 1012.2 0.0
10/02:30pm 29.2 30.3 18.0 51 7.2 N 9 15 5 8 1012.9 1012.6 0.0
10/02:00pm 29.3 30.1 18.1 51 7.2 NNE 11 17 6 9 1013.4 1013.1 0.0
10/01:30pm 28.3 28.2 17.8 53 6.7 NNE 15 22 8 12 1013.8 1013.5 0.0
10/01:00pm 28.3 29.1 18.1 54 6.5 NNE 11 19 6 10 1014.1 1013.8 0.0
10/12:30pm 27.3 27.9 17.8 56 6.0 N 11 19 6 10 1014.7 1014.4 0.0
10/12:00pm 26.6 26.9 17.1 56 5.9 NNE 11 20 6 11 1015.2 1014.9 0.0
10/11:30am 26.6 27.5 18.5 61 5.2 N 11 17 6 9 1015.6 1015.3 0.0
10/11:00am 25.4 26.6 17.3 61 5.1 NNE 7 15 4 8 1016.1 1015.8 0.0
10/10:30am 24.4 25.0 17.6 66 4.3 N 11 17 6 9 1016.4 1016.1 0.0
10/10:00am 24.0 25.4 18.6 72 3.4 NNE 9 15 5 8 1016.6 1016.3 0.0
10/09:30am 22.4 24.3 18.6 79 2.4 N 6 11 3 6 1016.7 1016.4 0.0
10/09:00am 20.6 23.2 18.4 87 1.4 NW 2 6 1 3 1016.8 1016.5 0.0
10/08:30am 18.9 22.0 18.6 98 0.2 CALM 0 0 0 0 1016.8 1016.5 0.0
10/08:00am 17.9 19.9 17.9 100 0.0 WSW 4 6 2 3 1016.8 1016.5 0.0
10/07:30am 16.5 18.7 16.5 100 0.0 CALM 0 0 0 0 1016.7 1016.4 0.0
10/07:00am 15.6 17.4 15.6 100 0.0 CALM 0 0 0 0 1016.6 1016.3 0.0
10/06:30am 15.8 17.7 15.8 100 0.0 CALM 0 0 0 0 1016.4 1016.1 0.0
10/06:00am 16.4 18.6 16.4 100 0.0 CALM 0 0 0 0 1016.2 1015.9 0.0
10/05:30am 16.1 18.1 16.1 100 0.0 CALM 0 0 0 0 1016.0 1015.7 0.0
10/05:00am 16.2 17.5 16.2 100 0.0 WSW 4 6 2 3 1016.0 1015.7 0.0
10/04:30am 16.7 17.8 16.7 100 0.0 WSW 6 6 3 3 1016.1 1015.8 0.0
10/04:00am 16.6 18.0 16.4 99 0.1 WSW 4 6 2 3 1016.2 1015.9 0.0
10/03:30am 17.1 19.3 16.6 97 0.3 CALM 0 0 0 0 1016.4 1016.1 0.0
10/03:00am 17.6 19.7 17.3 98 0.2 W 2 4 1 2 1016.8 1016.5 0.0
10/02:30am 17.7 19.0 17.2 97 0.3 W 6 6 3 3 1017.1 1016.8 0.0
10/02:00am 18.0 19.4 17.4 96 0.4 W 6 6 3 3 1017.6 1017.2 0.0
10/01:30am 18.1 19.4 17.0 93 0.7 W 6 6 3 3 1017.7 1017.3 0.0
10/01:00am 18.5 19.8 17.2 92 0.8 W 6 7 3 4 1018.2 1017.8 0.0
10/12:30am 18.7 20.3 17.9 95 0.5 SSE 6 7 3 4 1018.6 1018.2 0.0
10/12:00am 18.2 20.0 17.4 95 0.5 ESE 4 6 2 3 1018.8 1018.4 0.0
 
Date/Time
EDT
Temp
°C
App
Temp
°C
Dew
Point
Rel
Hum
%
Delta-T
°C
Wind Press
QNH
hPa
Press
MSL
hPa
Rain
since 9 am
mm
Dir
 
Spd
km/h
Gust
km/h
Spd
kts
Gust
kts
09/11:30pm 18.9 20.8 17.6 92 0.8 ESE 4 4 2 2 1019.0 1018.6 0.0
09/11:00pm 19.5 21.6 18.0 91 0.9 ESE 4 4 2 2 1019.4 1019.0 0.0
09/10:30pm 19.3 21.1 17.4 89 1.2 ESE 4 4 2 2 1019.6 1019.2 0.0
09/10:00pm 19.3 21.2 16.7 85 1.6 ESE 2 4 1 2 1019.7 1019.3 0.0
09/09:30pm 20.0 21.4 16.4 80 2.2 ESE 4 6 2 3 1019.5 1019.1 0.0
09/09:00pm 20.5 21.8 16.1 76 2.6 ESE 4 6 2 3 1019.5 1019.1 0.0
09/08:30pm 21.0 21.9 16.0 73 3.0 ESE 6 9 3 5 1019.2 1018.8 0.0
09/08:00pm 21.5 22.4 16.5 73 3.0 ESE 7 9 4 5 1019.1 1018.7 0.0
09/07:30pm 22.6 22.2 16.2 67 3.9 ESE 13 19 7 10 1018.8 1018.4 0.0
09/07:00pm 24.0 23.6 16.3 62 4.7 E 13 20 7 11 1018.5 1018.1 0.0
09/06:30pm 24.9 24.7 16.6 60 5.1 ESE 13 20 7 11 1018.2 1017.8 0.0
09/06:00pm 25.7 25.7 17.1 59 5.4 ESE 13 19 7 10 1018.0 1017.6 0.0
09/05:30pm 26.1 25.9 16.6 55 5.9 E 13 17 7 9 1018.1 1017.7 0.0
09/05:00pm 26.4 26.2 16.6 55 6.1 E 13 20 7 11 1018.1 1017.7 0.0
09/04:30pm 27.0 27.5 17.5 56 6.0 ESE 11 17 6 9 1018.3 1017.9 0.0
09/04:00pm 27.2 27.0 18.5 59 5.6 E 17 24 9 13 1018.6 1018.2 0.0
09/03:30pm 27.4 27.2 17.6 55 6.2 E 15 22 8 12 1018.8 1018.4 0.0
09/03:00pm 27.0 27.3 18.0 58 5.7 E 13 19 7 10 1019.2 1018.8 0.0
09/02:30pm 26.5 27.1 17.6 58 5.6 ESE 11 17 6 9 1019.5 1019.1 0.0
09/02:00pm 27.5 27.8 17.9 55 6.1 ESE 13 20 7 11 1019.8 1019.4 0.0
09/01:30pm 27.1 27.9 18.1 58 5.7 E 11 17 6 9 1020.1 1019.7 0.0
09/01:00pm 25.6 27.1 17.5 61 5.1 S 6 9 3 5 1020.3 1019.9 0.0
09/12:30pm 25.9 27.6 18.6 64 4.7 SW 7 11 4 6 1020.6 1020.2 0.0
09/12:00pm 25.9 27.6 18.1 62 4.9 SSE 6 11 3 6 1020.9 1020.5 0.0
09/11:30am 25.2 26.2 17.7 63 4.7 SSE 9 17 5 9 1021.1 1020.7 0.0
09/11:00am 25.2 26.4 19.1 69 3.9 S 11 19 6 10 1021.2 1020.8 0.0
09/10:30am 23.9 25.1 19.0 74 3.1 S 11 19 6 10 1021.4 1021.0 0.0
09/10:00am 23.0 24.2 19.0 78 2.5 S 11 17 6 9 1021.5 1021.1 0.0
09/09:30am 23.3 24.8 19.0 77 2.7 S 9 17 5 9 1021.4 1021.0 0.0
09/09:00am 22.6 23.8 19.0 80 2.3 SW 11 17 6 9 1021.3 1020.9 0.0
09/08:30am 21.2 23.0 18.4 84 1.8 WSW 6 7 3 4 1021.3 1020.9 0.0
09/08:00am 20.3 23.2 19.0 92 0.8 SW 2 4 1 2 1021.0 1020.6 0.0
09/07:30am 18.5 19.9 17.3 93 0.7 SW 6 7 3 4 1020.5 1020.1 0.0
09/07:00am 17.9 19.1 17.4 97 0.3 WSW 7 9 4 5 1020.2 1019.8 0.0
09/06:30am 17.6 19.0 17.3 98 0.2 SW 6 6 3 3 1019.9 1019.5 0.0
09/06:00am 17.1 17.7 16.9 99 0.1 SW 9 11 5 6 1019.4 1019.0 0.0
09/05:30am 17.1 18.0 16.5 96 0.4 WSW 7 9 4 5 1019.2 1018.8 0.0
09/05:00am 18.2 20.6 17.0 93 0.7 CALM 0 4 0 2 1019.2 1018.8 0.0
09/04:30am 18.4 19.9 17.6 95 0.5 SSW 6 7 3 4 1019.0 1018.6 0.0
09/04:00am 18.4 19.8 17.9 97 0.3 WSW 7 9 4 5 1019.0 1018.6 0.0
09/03:30am 18.3 20.0 18.1 99 0.1 SW 6 9 3 5 1019.2 1018.8 0.0
09/03:00am 18.8 20.1 18.5 98 0.2 WSW 9 9 5 5 1019.2 1018.8 0.0
09/02:30am 18.9 20.3 18.7 99 0.1 WSW 9 11 5 6 1019.6 1019.2 0.0
09/02:00am 18.6 19.6 18.6 100 0.0 WSW 11 11 6 6 1019.7 1019.3 0.0
09/01:30am 18.1 19.6 18.1 100 0.0 SW 7 9 4 5 1019.8 1019.4 0.0
09/01:00am 18.4 20.0 18.2 99 0.1 WSW 7 9 4 5 1020.0 1019.6 0.0
09/12:30am 18.4 19.9 18.1 98 0.2 ESE 7 9 4 5 1020.1 1019.7 0.0
09/12:00am 18.8 20.4 18.3 97 0.3 ESE 7 9 4 5 1020.1 1019.7 0.0
 
Date/Time
EDT
Temp
°C
App
Temp
°C
Dew
Point
Rel
Hum
%
Delta-T
°C
Wind Press
QNH
hPa
Press
MSL
hPa
Rain
since 9 am
mm
Dir
 
Spd
km/h
Gust
km/h
Spd
kts
Gust
kts
08/11:30pm 19.1 21.0 18.6 97 0.3 ESE 6 7 3 4 1020.1 1019.7 0.0
08/11:00pm 19.0 20.6 18.3 96 0.4 ESE 7 7 4 4 1020.1 1019.7 0.0
08/10:30pm 19.9 22.2 18.6 92 0.8 ESE 4 4 2 2 1020.1 1019.7 0.0
08/10:00pm 20.2 22.0 18.3 89 1.2 ESE 6 7 3 4 1020.0 1019.6 0.0
08/09:30pm 20.7 22.4 18.1 85 1.6 ESE 6 9 3 5 1019.5 1019.1 0.0
08/09:00pm 21.4 22.9 17.6 79 2.3 ESE 6 9 3 5 1019.0 1018.6 0.0
08/08:30pm 22.1 22.6 17.5 75 2.8 ESE 11 17 6 9 1018.5 1018.1 0.0
08/08:00pm 23.1 23.7 16.9 68 3.8 E 9 13 5 7 1018.4 1018.0 0.0
08/07:30pm 24.5 24.7 16.7 61 4.8 ESE 11 19 6 10 1017.9 1017.5 0.0
08/07:00pm 25.8 26.1 16.9 58 5.5 E 11 19 6 10 1017.5 1017.1 0.0
08/06:30pm 26.7 26.3 16.3 53 6.4 ESE 13 19 7 10 1017.0 1016.7 0.0
08/06:00pm 27.3 26.3 16.6 52 6.7 E 17 24 9 13 1017.0 1016.7 0.0
08/05:30pm 27.9 27.5 18.0 55 6.3 E 17 22 9 12 1016.9 1016.6 0.0

Other Formats:

Comma delimited format used in spreadsheet applications
http://www.bom.gov.au/fwo/IDN60801/IDN60801.94752.axf

JavaScript Object Notation format (JSON) in row-major order
http://www.bom.gov.au/fwo/IDN60801/IDN60801.94752.json